Time;durP1;ratioP1;P1;durP2;ratioP2;P2;SDS_P1;SDS_P2;PMS_P1;PMS_P2;Temp;Humidity;BMP_temperature;BMP_pressure;BME280_temperature;BME280_humidity;BME280_pressure;Samples;Min_cycle;Max_cycle;Signal;HPM_P1;HPM_P2
2022/09/27 00:02:07;;;;;;;0.00;0.00;;;9.10;99.90;;;;;;5090115;28;20498;-77
2022/09/27 00:04:33;;;;;;;0.43;0.38;;;9.40;99.90;;;;;;5088824;28;20036;-77
2022/09/27 00:06:59;;;;;;;0.00;0.00;;;9.10;99.90;;;;;;5094015;28;20407;-79
2022/09/27 00:09:25;;;;;;;0.15;0.15;;;9.10;99.90;;;;;;5106587;28;20390;-78
2022/09/27 00:11:50;;;;;;;0.00;0.00;;;9.10;99.90;;;;;;5105952;28;20039;-78
2022/09/27 00:14:17;;;;;;;0.00;0.00;;;9.10;99.90;;;;;;5108117;28;20048;-79
2022/09/27 00:16:43;;;;;;;0.00;0.00;;;9.00;99.90;;;;;;5106067;28;20052;-81
2022/09/27 00:19:13;;;;;;;0.00;0.00;;;9.00;99.90;;;;;;5100257;28;20126;-79
2022/09/27 00:21:39;;;;;;;0.30;0.20;;;9.00;99.90;;;;;;5089434;28;20085;-78
2022/09/27 00:24:05;;;;;;;0.00;0.00;;;8.90;99.90;;;;;;5088696;28;20040;-79
2022/09/27 00:26:31;;;;;;;0.10;0.10;;;8.90;99.90;;;;;;5088563;28;20051;-79
2022/09/27 00:28:57;;;;;;;0.00;0.00;;;8.90;99.90;;;;;;5088911;28;20050;-79
2022/09/27 00:31:28;;;;;;;0.00;0.00;;;8.90;99.90;;;;;;5088511;28;20048;-79
2022/09/27 00:33:55;;;;;;;0.00;0.00;;;9.40;99.90;;;;;;5088407;28;20112;-80
2022/09/27 00:36:22;;;;;;;0.00;0.00;;;9.00;99.90;;;;;;5088918;28;20040;-80
2022/09/27 00:38:48;;;;;;;0.00;0.00;;;9.00;99.90;;;;;;5088869;28;20546;-79
2022/09/27 00:41:21;;;;;;;0.00;0.00;;;9.00;99.90;;;;;;5088735;28;20402;-79
2022/09/27 00:43:47;;;;;;;0.00;0.00;;;9.00;99.90;;;;;;5089343;28;20546;-79
2022/09/27 00:46:17;;;;;;;0.00;0.00;;;9.30;99.90;;;;;;5089118;28;20048;-80
2022/09/27 00:48:44;;;;;;;0.00;0.00;;;8.90;99.90;;;;;;5088699;28;20052;-79
2022/09/27 00:51:10;;;;;;;0.00;0.00;;;8.90;99.90;;;;;;5089292;28;20044;-78
2022/09/27 00:53:48;;;;;;;0.00;0.00;;;8.90;99.90;;;;;;5088504;28;20055;-80
2022/09/27 00:56:27;;;;;;;0.00;0.00;;;8.90;99.90;;;;;;5088638;28;20490;-79
2022/09/27 00:59:02;;;;;;;0.55;0.55;;;8.90;99.90;;;;;;5089288;28;20108;-79
2022/09/27 01:01:29;;;;;;;0.00;0.00;;;8.90;99.90;;;;;;5089742;28;20048;-79
2022/09/27 01:04:06;;;;;;;0.00;0.00;;;8.90;99.90;;;;;;5088687;28;20048;-79
2022/09/27 01:06:32;;;;;;;0.00;0.00;;;8.90;99.90;;;;;;5070467;28;20047;-80
2022/09/27 01:08:58;;;;;;;0.00;0.00;;;9.00;99.90;;;;;;5088267;28;20051;-79
2022/09/27 01:11:45;;;;;;;0.00;0.00;;;8.80;99.90;;;;;;5088912;28;20833;-78
2022/09/27 01:14:29;;;;;;;0.00;0.00;;;8.80;99.90;;;;;;5086775;28;20051;-79
2022/09/27 01:17:17;;;;;;;0.00;0.00;;;8.80;99.90;;;;;;5068481;28;20890;-78
2022/09/27 01:20:11;;;;;;;0.00;0.00;;;8.70;99.90;;;;;;5088261;28;20048;-80
2022/09/27 01:22:55;;;;;;;0.00;0.00;;;8.70;99.90;;;;;;5087905;28;20059;-79
2022/09/27 01:25:26;;;;;;;0.00;0.00;;;8.70;99.90;;;;;;5087530;28;20131;-78
2022/09/27 01:28:04;;;;;;;0.00;0.00;;;8.60;99.90;;;;;;5088011;28;20101;-78
2022/09/27 01:30:35;;;;;;;0.00;0.00;;;8.60;99.90;;;;;;5088306;28;20055;-78
2022/09/27 01:33:15;;;;;;;0.35;0.20;;;8.50;99.90;;;;;;5071260;28;20044;-77
2022/09/27 01:36:00;;;;;;;2.22;0.15;;;8.60;99.90;;;;;;5089009;28;20047;-79
2022/09/27 01:38:35;;;;;;;0.00;0.00;;;8.70;99.90;;;;;;5088103;28;20047;-78
2022/09/27 01:41:11;;;;;;;0.00;0.00;;;8.60;99.90;;;;;;5087893;28;20048;-78
2022/09/27 01:44:01;;;;;;;0.65;0.47;;;8.70;99.90;;;;;;5088083;28;20410;-79
2022/09/27 01:46:40;;;;;;;0.00;0.00;;;8.80;99.90;;;;;;5087840;28;20086;-79
2022/09/27 01:49:15;;;;;;;4.97;0.43;;;8.90;99.90;;;;;;5070352;28;20766;-78
2022/09/27 01:51:47;;;;;;;0.00;0.00;;;9.00;99.90;;;;;;5087673;28;20063;-80
2022/09/27 01:54:20;;;;;;;0.00;0.00;;;9.40;99.90;;;;;;5088084;28;20543;-79
2022/09/27 01:56:51;;;;;;;0.10;0.10;;;9.10;99.90;;;;;;5086488;28;20048;-80
2022/09/27 01:59:28;;;;;;;0.00;0.00;;;9.50;99.90;;;;;;5093488;22;20045;-84
2022/09/27 02:01:58;;;;;;;0.00;0.00;;;9.10;99.90;;;;;;5038712;28;20056;-81
2022/09/27 02:04:30;;;;;;;0.00;0.00;;;9.10;99.90;;;;;;5027464;28;20045;-82
2022/09/27 02:07:03;;;;;;;0.00;0.00;;;9.10;99.90;;;;;;5035886;28;20124;-81
2022/09/27 02:09:41;;;;;;;0.00;0.00;;;9.10;99.90;;;;;;5028460;28;20101;-80
2022/09/27 02:12:12;;;;;;;0.00;0.00;;;9.20;99.90;;;;;;5017362;28;20086;-79
2022/09/27 02:14:54;;;;;;;0.00;0.00;;;9.10;99.90;;;;;;5019414;28;20038;-76
2022/09/27 02:17:33;;;;;;;2.00;0.20;;;9.10;99.90;;;;;;5042125;28;20071;-79
2022/09/27 02:20:02;;;;;;;6.75;0.52;;;9.10;99.90;;;;;;5044542;28;20124;-78
2022/09/27 02:22:49;;;;;;;0.00;0.00;;;9.80;99.90;;;;;;5034143;28;20594;-78
2022/09/27 02:25:40;;;;;;;0.00;0.00;;;9.00;99.90;;;;;;5038940;28;20046;-78
2022/09/27 02:28:32;;;;;;;0.00;0.00;;;9.00;99.90;;;;;;5044009;28;20072;-81
2022/09/27 02:30:58;;;;;;;0.00;0.00;;;8.90;99.90;;;;;;5048728;28;20046;-79
2022/09/27 02:33:30;;;;;;;0.00;0.00;;;8.90;99.90;;;;;;5046705;28;20041;-80
2022/09/27 02:35:56;;;;;;;0.00;0.00;;;9.40;99.90;;;;;;5029233;28;20045;-78
2022/09/27 02:38:22;;;;;;;0.00;0.00;;;8.90;99.90;;;;;;5043797;28;20053;-78
2022/09/27 02:40:49;;;;;;;0.00;0.00;;;8.90;99.90;;;;;;5028242;28;20054;-79
2022/09/27 02:43:18;;;;;;;0.00;0.00;;;8.80;99.90;;;;;;5032813;28;20026;-79
2022/09/27 02:46:13;;;;;;;0.00;0.00;;;8.80;99.90;;;;;;5028378;28;20105;-80
2022/09/27 02:48:52;;;;;;;4.22;1.35;;;8.80;99.90;;;;;;5028221;28;20512;-80
2022/09/27 02:51:40;;;;;;;0.00;0.00;;;8.80;99.90;;;;;;5030816;28;20068;-80
2022/09/27 02:54:12;;;;;;;6.40;1.25;;;8.80;99.90;;;;;;5028338;28;20057;-80
2022/09/27 02:57:09;;;;;;;0.00;0.00;;;8.80;99.90;;;;;;5044833;28;20045;-79
2022/09/27 02:59:51;;;;;;;0.00;0.00;;;8.80;99.90;;;;;;5037836;28;20114;-79
2022/09/27 03:02:45;;;;;;;0.00;0.00;;;8.90;99.90;;;;;;5036134;28;20060;-80
2022/09/27 03:05:21;;;;;;;0.00;0.00;;;8.90;99.90;;;;;;5037800;28;20072;-80
2022/09/27 03:07:47;;;;;;;0.00;0.00;;;8.80;99.90;;;;;;5035521;28;20056;-79
2022/09/27 03:10:26;;;;;;;0.00;0.00;;;8.80;99.90;;;;;;5017342;28;20121;-79
2022/09/27 03:12:53;;;;;;;0.05;0.05;;;8.80;99.90;;;;;;5003021;28;20042;-78
2022/09/27 03:15:19;;;;;;;0.00;0.00;;;8.80;99.90;;;;;;4999437;28;20058;-78
2022/09/27 03:17:46;;;;;;;0.00;0.00;;;8.80;99.90;;;;;;4999368;28;20050;-78
2022/09/27 03:20:11;;;;;;;0.00;0.00;;;8.80;99.90;;;;;;5003176;28;20598;-79
2022/09/27 03:22:37;;;;;;;0.30;0.20;;;8.70;99.90;;;;;;5003564;28;20042;-78
2022/09/27 03:25:04;;;;;;;0.00;0.00;;;8.70;99.90;;;;;;5004636;28;20090;-77
2022/09/27 03:27:31;;;;;;;0.00;0.00;;;8.60;99.90;;;;;;5006699;28;20054;-78
2022/09/27 03:29:58;;;;;;;0.00;0.00;;;8.60;99.90;;;;;;5007265;28;20420;-80
2022/09/27 03:32:24;;;;;;;0.00;0.00;;;7.50;99.90;;;;;;5031463;28;20052;-80
2022/09/27 03:34:50;;;;;;;0.00;0.00;;;8.50;99.90;;;;;;5036917;28;20060;-78
2022/09/27 03:37:16;;;;;;;0.00;0.00;;;8.50;99.90;;;;;;5032864;28;20098;-79
2022/09/27 03:39:42;;;;;;;0.73;0.32;;;8.50;99.90;;;;;;5016532;28;20046;-80
2022/09/27 03:42:07;;;;;;;0.00;0.00;;;9.50;99.90;;;;;;5015239;28;20061;-79
2022/09/27 03:44:33;;;;;;;0.00;0.00;;;8.50;99.90;;;;;;5021509;28;20054;-80
2022/09/27 03:46:59;;;;;;;0.00;0.00;;;8.50;99.90;;;;;;5021695;28;20258;-80
2022/09/27 03:49:25;;;;;;;0.10;0.10;;;8.50;99.90;;;;;;5024363;28;20034;-81
2022/09/27 03:51:50;;;;;;;0.00;0.00;;;8.50;99.90;;;;;;5022960;28;20053;-79
2022/09/27 03:54:16;;;;;;;0.13;0.10;;;8.40;99.90;;;;;;5019648;28;20049;-81
2022/09/27 03:56:42;;;;;;;0.28;0.28;;;9.60;99.90;;;;;;5026455;28;20052;-79
2022/09/27 03:59:08;;;;;;;0.00;0.00;;;8.50;99.90;;;;;;5045536;28;20022;-81
2022/09/27 04:01:37;;;;;;;0.00;0.00;;;8.40;99.90;;;;;;5032161;28;20058;-83
2022/09/27 04:04:03;;;;;;;0.00;0.00;;;8.40;99.90;;;;;;5027172;28;20583;-82
2022/09/27 04:06:29;;;;;;;0.00;0.00;;;8.40;99.90;;;;;;5025368;28;20045;-83
2022/09/27 04:08:55;;;;;;;0.00;0.00;;;8.40;99.90;;;;;;5020298;28;20073;-79
2022/09/27 04:11:24;;;;;;;11.50;0.70;;;8.40;99.90;;;;;;5020555;28;20029;-81
2022/09/27 04:13:50;;;;;;;0.85;0.85;;;8.50;99.90;;;;;;5033234;28;20045;-81
2022/09/27 04:16:15;;;;;;;0.00;0.00;;;8.50;99.90;;;;;;5020467;28;20048;-83
2022/09/27 04:18:42;;;;;;;0.00;0.00;;;8.50;99.90;;;;;;5025310;28;20502;-83
2022/09/27 04:21:08;;;;;;;0.00;0.00;;;8.50;99.90;;;;;;5023477;28;20101;-83
2022/09/27 04:23:35;;;;;;;0.00;0.00;;;8.50;99.90;;;;;;5026314;28;20044;-83
2022/09/27 04:26:01;;;;;;;0.35;0.35;;;8.60;99.90;;;;;;5020463;28;20060;-83
2022/09/27 04:28:28;;;;;;;0.00;0.00;;;8.60;99.90;;;;;;5021510;28;20049;-79
2022/09/27 04:30:54;;;;;;;0.00;0.00;;;8.60;99.90;;;;;;5016329;28;20046;-80
2022/09/27 04:33:20;;;;;;;0.00;0.00;;;8.60;99.90;;;;;;5018519;28;20038;-79
2022/09/27 04:38:30;;;;;;;8.48;1.38;;;8.50;99.90;;;;;;5016159;28;20579;-79
2022/09/27 04:40:56;;;;;;;0.10;0.10;;;8.60;99.90;;;;;;5016368;28;20048;-79
2022/09/27 04:43:22;;;;;;;0.20;0.20;;;8.50;99.90;;;;;;5016691;28;20046;-80
2022/09/27 04:45:48;;;;;;;0.00;0.00;;;8.50;99.90;;;;;;5015624;28;20046;-80
2022/09/27 04:48:13;;;;;;;5.05;0.63;;;8.50;99.90;;;;;;5015909;28;20045;-80
2022/09/27 04:50:40;;;;;;;0.00;0.00;;;8.50;99.90;;;;;;5010113;28;20042;-81
2022/09/27 04:53:06;;;;;;;1.02;0.98;;;8.50;99.90;;;;;;4992518;28;20559;-78
2022/09/27 04:55:32;;;;;;;0.00;0.00;;;8.50;99.90;;;;;;4990671;28;20042;-78
2022/09/27 04:58:00;;;;;;;0.00;0.00;;;8.60;99.90;;;;;;5009302;28;20049;-78
2022/09/27 05:00:27;;;;;;;0.00;0.00;;;8.60;99.90;;;;;;5009911;28;20089;-78
2022/09/27 05:02:53;;;;;;;0.10;0.10;;;8.60;99.90;;;;;;5007255;28;20531;-80
2022/09/27 05:05:18;;;;;;;0.43;0.30;;;8.50;99.90;;;;;;5002980;28;20425;-78
2022/09/27 05:07:44;;;;;;;0.00;0.00;;;8.40;99.90;;;;;;5007729;28;20081;-79
2022/09/27 05:10:10;;;;;;;4.53;0.43;;;8.50;99.90;;;;;;5007348;28;20049;-80
2022/09/27 05:12:35;;;;;;;0.00;0.00;;;8.40;99.90;;;;;;5006420;28;20077;-79
2022/09/27 05:15:02;;;;;;;0.00;0.00;;;8.60;99.90;;;;;;5009332;28;20079;-81
2022/09/27 05:17:28;;;;;;;0.00;0.00;;;8.40;99.90;;;;;;5011844;28;20065;-80
2022/09/27 05:19:53;;;;;;;0.00;0.00;;;8.40;99.90;;;;;;5013714;28;20073;-80
2022/09/27 05:22:19;;;;;;;0.00;0.00;;;8.40;99.90;;;;;;5011153;28;20116;-81
2022/09/27 05:24:46;;;;;;;0.00;0.00;;;8.40;99.90;;;;;;5009623;28;20034;-80
2022/09/27 05:27:19;;;;;;;0.00;0.00;;;8.40;99.90;;;;;;5020989;28;20466;-80
2022/09/27 05:29:49;;;;;;;0.00;0.00;;;8.40;99.90;;;;;;5032458;28;20053;-80
2022/09/27 05:32:14;;;;;;;0.00;0.00;;;8.40;99.90;;;;;;5033983;28;20799;-79
2022/09/27 05:34:40;;;;;;;0.00;0.00;;;8.40;99.90;;;;;;5015482;28;20045;-80
2022/09/27 05:37:06;;;;;;;0.00;0.00;;;8.40;99.90;;;;;;5014846;28;20045;-80
2022/09/27 05:39:32;;;;;;;0.13;0.10;;;8.40;99.90;;;;;;5016383;28;20102;-80
2022/09/27 05:41:59;;;;;;;0.00;0.00;;;8.30;99.90;;;;;;5015890;28;20519;-79
2022/09/27 05:44:24;;;;;;;0.00;0.00;;;8.30;99.90;;;;;;5011399;28;20053;-81
2022/09/27 05:46:50;;;;;;;0.00;0.00;;;8.30;99.90;;;;;;5010555;28;20496;-79
2022/09/27 05:49:16;;;;;;;0.00;0.00;;;8.30;99.90;;;;;;5009715;28;20053;-79
2022/09/27 05:51:42;;;;;;;0.00;0.00;;;8.30;99.90;;;;;;5009365;28;20423;-79
2022/09/27 05:54:08;;;;;;;0.00;0.00;;;8.30;99.90;;;;;;5009276;28;20058;-81
2022/09/27 05:56:34;;;;;;;0.00;0.00;;;8.30;99.90;;;;;;5008923;28;20045;-78
2022/09/27 05:58:59;;;;;;;0.00;0.00;;;8.30;99.90;;;;;;5010928;28;20072;-78
2022/09/27 06:01:26;;;;;;;0.00;0.00;;;8.30;99.90;;;;;;5011553;28;20053;-77
2022/09/27 06:03:53;;;;;;;0.00;0.00;;;8.30;99.90;;;;;;5014677;28;20104;-76
2022/09/27 06:06:22;;;;;;;0.00;0.00;;;8.30;99.90;;;;;;5015216;28;20038;-76
2022/09/27 06:08:48;;;;;;;0.00;0.00;;;8.40;99.90;;;;;;5016650;28;20865;-77
2022/09/27 06:11:14;;;;;;;0.10;0.05;;;8.30;99.90;;;;;;5018680;28;20052;-77
2022/09/27 06:13:40;;;;;;;0.00;0.00;;;8.40;99.90;;;;;;5015917;28;20073;-78
2022/09/27 06:16:08;;;;;;;0.28;0.15;;;8.40;99.90;;;;;;5011680;28;20053;-78
2022/09/27 06:18:34;;;;;;;3.85;0.95;;;8.50;99.90;;;;;;5007456;28;20061;-77
2022/09/27 06:21:01;;;;;;;0.00;0.00;;;8.60;99.90;;;;;;5011572;28;20046;-77
2022/09/27 06:23:27;;;;;;;0.00;0.00;;;8.60;99.90;;;;;;5011343;28;20895;-77
2022/09/27 06:25:53;;;;;;;0.00;0.00;;;8.70;99.90;;;;;;5011104;28;20046;-78
2022/09/27 06:28:20;;;;;;;0.00;0.00;;;8.70;99.90;;;;;;5011346;28;20398;-78
2022/09/27 06:30:48;;;;;;;0.00;0.00;;;8.70;99.90;;;;;;5010882;28;20057;-78
2022/09/27 06:33:19;;;;;;;0.00;0.00;;;8.80;99.90;;;;;;5009521;28;20187;-78
2022/09/27 06:35:46;;;;;;;0.00;0.00;;;8.80;99.90;;;;;;5011345;28;20052;-77
2022/09/27 06:38:14;;;;;;;0.00;0.00;;;8.80;99.90;;;;;;5011988;28;20058;-78
2022/09/27 06:40:44;;;;;;;0.00;0.00;;;8.80;99.90;;;;;;5012881;28;20049;-78
2022/09/27 06:43:12;;;;;;;0.00;0.00;;;10.00;99.90;;;;;;5013181;28;20100;-77
2022/09/27 06:45:38;;;;;;;12.52;0.47;;;8.80;99.90;;;;;;5009501;28;20496;-78
2022/09/27 06:48:06;;;;;;;0.00;0.00;;;8.80;99.90;;;;;;5014082;28;20128;-78
2022/09/27 06:50:34;;;;;;;0.00;0.00;;;8.80;99.90;;;;;;5014105;28;20044;-76
2022/09/27 06:53:01;;;;;;;0.00;0.00;;;8.80;99.90;;;;;;5015569;28;20551;-79
2022/09/27 06:55:27;;;;;;;0.00;0.00;;;8.80;99.90;;;;;;5016884;28;20125;-77
2022/09/27 07:00:42;;;;;;;0.00;0.00;;;8.80;99.90;;;;;;5018151;28;20081;-76
2022/09/27 07:03:13;;;;;;;0.00;0.00;;;8.80;99.90;;;;;;5017048;28;20049;-77
2022/09/27 07:05:41;;;;;;;0.00;0.00;;;8.80;99.90;;;;;;5015871;28;20060;-75
2022/09/27 07:08:10;;;;;;;2.90;0.45;;;9.00;99.90;;;;;;5018177;28;20038;-77
2022/09/27 07:10:37;;;;;;;0.03;0.03;;;9.10;99.90;;;;;;5021539;28;20053;-80
2022/09/27 07:13:05;;;;;;;0.00;0.00;;;9.10;99.90;;;;;;5018862;28;20049;-79
2022/09/27 07:15:31;;;;;;;0.00;0.00;;;9.20;99.90;;;;;;5014686;28;20054;-77
2022/09/27 07:17:58;;;;;;;1.35;0.40;;;9.30;99.90;;;;;;5016254;28;20064;-78
2022/09/27 07:20:25;;;;;;;0.00;0.00;;;9.30;99.90;;;;;;5011209;28;20042;-80
2022/09/27 07:22:51;;;;;;;0.70;0.45;;;9.30;99.90;;;;;;5011277;28;20042;-79
2022/09/27 07:25:17;;;;;;;0.00;0.00;;;9.30;99.90;;;;;;5014631;28;20052;-78
2022/09/27 07:27:42;;;;;;;0.00;0.00;;;9.30;99.90;;;;;;5017198;28;20037;-79
2022/09/27 07:30:10;;;;;;;0.00;0.00;;;9.30;99.90;;;;;;5020420;28;20485;-81
2022/09/27 07:32:35;;;;;;;0.00;0.00;;;9.30;99.90;;;;;;5018726;28;20099;-78
2022/09/27 07:35:06;;;;;;;0.00;0.00;;;9.40;99.90;;;;;;5021194;28;20053;-79
2022/09/27 07:37:33;;;;;;;0.00;0.00;;;9.30;99.90;;;;;;5015813;28;20049;-78
2022/09/27 07:39:59;;;;;;;0.00;0.00;;;9.70;99.90;;;;;;4997817;28;20052;-79
2022/09/27 07:42:26;;;;;;;0.00;0.00;;;9.40;99.90;;;;;;5014666;28;20050;-78
2022/09/27 07:44:51;;;;;;;0.00;0.00;;;9.40;99.90;;;;;;5015693;28;20152;-80
2022/09/27 07:47:18;;;;;;;0.60;0.32;;;9.40;99.90;;;;;;5023753;28;20559;-78
2022/09/27 07:49:44;;;;;;;0.00;0.00;;;9.50;99.90;;;;;;5027743;28;20077;-80
2022/09/27 07:52:09;;;;;;;0.00;0.00;;;9.50;99.90;;;;;;5025886;28;20088;-78
2022/09/27 07:54:36;;;;;;;0.00;0.00;;;9.60;99.90;;;;;;5026907;28;20057;-79
2022/09/27 07:57:02;;;;;;;0.00;0.00;;;9.90;99.90;;;;;;5027793;28;20594;-78
2022/09/27 07:59:28;;;;;;;0.08;0.08;;;10.40;99.90;;;;;;5029244;28;20119;-79
2022/09/27 08:01:54;;;;;;;0.00;0.00;;;10.70;99.90;;;;;;5028981;28;20053;-78
2022/09/27 08:04:20;;;;;;;0.00;0.00;;;10.80;99.90;;;;;;5028568;28;20616;-76
2022/09/27 08:06:46;;;;;;;0.00;0.00;;;11.00;99.90;;;;;;5029239;28;20545;-77
2022/09/27 08:09:12;;;;;;;0.00;0.00;;;10.90;99.90;;;;;;5028181;28;20458;-78
2022/09/27 08:11:37;;;;;;;0.00;0.00;;;10.90;99.90;;;;;;5027257;28;20683;-80
2022/09/27 08:14:03;;;;;;;0.00;0.00;;;11.00;99.90;;;;;;5014039;28;20046;-79
2022/09/27 08:16:32;;;;;;;0.03;0.03;;;10.80;99.90;;;;;;5011447;28;20129;-78
2022/09/27 08:18:57;;;;;;;0.17;0.17;;;10.60;99.90;;;;;;5017537;28;20045;-78
2022/09/27 08:21:23;;;;;;;0.00;0.00;;;10.40;99.90;;;;;;5013344;28;20388;-80
2022/09/27 08:23:48;;;;;;;0.00;0.00;;;10.40;99.90;;;;;;5015188;28;20045;-77
2022/09/27 08:26:14;;;;;;;0.00;0.00;;;10.20;99.90;;;;;;5015866;28;20041;-77
2022/09/27 08:28:40;;;;;;;0.00;0.00;;;10.10;99.90;;;;;;5014290;28;20050;-78
2022/09/27 08:31:05;;;;;;;0.00;0.00;;;10.30;99.90;;;;;;5011857;28;20068;-78
2022/09/27 08:33:31;;;;;;;0.75;0.22;;;10.10;99.90;;;;;;5009763;28;20092;-78
2022/09/27 08:35:57;;;;;;;0.00;0.00;;;10.20;99.90;;;;;;5010436;28;20061;-77
2022/09/27 08:38:22;;;;;;;0.00;0.00;;;10.10;99.90;;;;;;5009483;28;20057;-77
2022/09/27 08:41:05;;;;;;;0.00;0.00;;;10.30;99.90;;;;;;5007428;28;20076;-78
2022/09/27 08:44:03;;;;;;;0.00;0.00;;;10.40;99.90;;;;;;5008497;28;20061;-77
2022/09/27 08:47:01;;;;;;;0.00;0.00;;;10.90;99.90;;;;;;5009231;28;20044;-77
2022/09/27 08:50:15;;;;;;;0.00;0.00;;;10.80;99.90;;;;;;5005513;28;20130;-76
2022/09/27 08:52:48;;;;;;;0.00;0.00;;;11.10;99.90;;;;;;5000557;28;20560;-77
2022/09/27 08:55:43;;;;;;;0.00;0.00;;;11.20;99.90;;;;;;5003485;28;20058;-77
2022/09/27 08:58:20;;;;;;;0.00;0.00;;;11.40;99.90;;;;;;5007201;28;20089;-76
2022/09/27 09:00:50;;;;;;;0.00;0.00;;;11.60;99.90;;;;;;5008747;28;20109;-78
2022/09/27 09:03:19;;;;;;;0.00;0.00;;;11.80;99.90;;;;;;5010829;28;20501;-76
2022/09/27 09:05:54;;;;;;;0.25;0.25;;;12.00;99.90;;;;;;5009346;28;20053;-76
2022/09/27 09:08:32;;;;;;;0.30;0.28;;;12.10;99.90;;;;;;5011899;28;20054;-76
2022/09/27 09:14:33;;;;;;;0.00;0.00;;;12.00;99.90;;;;;;5006578;28;20862;-77
2022/09/27 09:17:29;;;;;;;0.20;0.10;;;12.30;99.90;;;;;;5009109;28;20127;-77
2022/09/27 09:20:15;;;;;;;0.00;0.00;;;12.40;99.90;;;;;;4987476;28;20058;-77
2022/09/27 09:22:47;;;;;;;;;;;12.40;99.90;;;;;;5010550;28;20046;-78
2022/09/27 09:25:22;;;;;;;1.67;0.55;;;12.40;99.90;;;;;;5009368;28;19982;-78
2022/09/27 09:28:10;;;;;;;0.90;0.35;;;12.40;99.90;;;;;;5010242;28;20073;-79
2022/09/27 09:30:43;;;;;;;0.00;0.00;;;12.30;99.90;;;;;;5014520;28;20558;-83
2022/09/27 09:33:34;;;;;;;1.08;0.57;;;12.30;99.90;;;;;;5033831;28;20045;-80
2022/09/27 09:36:08;;;;;;;0.00;0.00;;;12.40;99.90;;;;;;5023488;28;20067;-81
2022/09/27 09:38:46;;;;;;;0.03;0.03;;;12.50;99.90;;;;;;5013614;28;20058;-82
2022/09/27 09:41:35;;;;;;;0.00;0.00;;;12.60;99.90;;;;;;5013894;28;20046;-82
2022/09/27 09:44:11;;;;;;;0.00;0.00;;;12.80;99.90;;;;;;5013565;28;20049;-81
2022/09/27 09:46:39;;;;;;;;;;;12.90;99.90;;;;;;5012169;28;20527;-80
2022/09/27 09:49:22;;;;;;;0.30;0.17;;;13.20;99.90;;;;;;5014095;28;19925;-80
2022/09/27 09:51:55;;;;;;;0.00;0.00;;;12.80;99.90;;;;;;5015654;28;20459;-80
2022/09/27 09:54:44;;;;;;;0.55;0.22;;;12.90;99.90;;;;;;5016096;28;20381;-80
2022/09/27 09:57:09;;;;;;;0.00;0.00;;;13.00;99.90;;;;;;5007135;28;20050;-80
2022/09/27 09:59:41;;;;;;;0.00;0.00;;;13.10;99.90;;;;;;5013905;28;20057;-80
2022/09/27 10:02:29;;;;;;;0.00;0.00;;;13.10;99.90;;;;;;5015300;28;20113;-80
2022/09/27 10:04:55;;;;;;;0.10;0.10;;;13.10;99.90;;;;;;5011820;28;20046;-77
2022/09/27 10:07:23;;;;;;;0.00;0.00;;;13.10;99.90;;;;;;5009113;28;20050;-78
2022/09/27 10:09:53;;;;;;;0.25;0.15;;;13.10;99.90;;;;;;4991505;28;20129;-79
2022/09/27 10:12:18;;;;;;;0.00;0.00;;;12.40;99.90;;;;;;5020885;28;20080;-82
2022/09/27 10:14:49;;;;;;;0.00;0.00;;;11.50;1.90;;;;;;5013446;28;20050;-81
2022/09/27 10:17:26;;;;;;;0.20;0.20;;;10.70;99.90;;;;;;5021014;28;20045;-77
2022/09/27 10:19:53;;;;;;;0.00;0.00;;;10.20;99.90;;;;;;5018356;28;20430;-80
2022/09/27 10:22:31;;;;;;;0.00;0.00;;;9.90;99.90;;;;;;5018284;28;20045;-77
2022/09/27 10:25:06;;;;;;;0.00;0.00;;;9.70;99.90;;;;;;5016604;28;20076;-81
2022/09/27 10:27:43;;;;;;;0.10;0.10;;;9.50;99.90;;;;;;5012111;28;20096;-80
2022/09/27 10:30:21;;;;;;;0.13;0.10;;;9.40;99.90;;;;;;5013519;28;20853;-79
2022/09/27 10:32:51;;;;;;;0.00;0.00;;;9.40;99.90;;;;;;5012031;28;20050;-79
2022/09/27 10:35:29;;;;;;;0.00;0.00;;;9.40;99.90;;;;;;5013198;28;20342;-78
2022/09/27 10:38:40;;;;;;;0.00;0.00;;;9.40;99.90;;;;;;5006376;28;20053;-77
2022/09/27 10:41:45;;;;;;;0.03;0.03;;;9.40;99.90;;;;;;5003581;28;20120;-77
2022/09/27 10:44:31;;;;;;;0.00;0.00;;;9.60;99.90;;;;;;5009664;28;20054;-78
2022/09/27 10:47:04;;;;;;;0.00;0.00;;;9.90;99.90;;;;;;5010482;28;20061;-76
2022/09/27 10:49:51;;;;;;;0.00;0.00;;;10.30;99.90;;;;;;5011082;28;20046;-77
2022/09/27 10:52:22;;;;;;;0.00;0.00;;;10.50;99.90;;;;;;5010906;28;20061;-76
2022/09/27 10:54:58;;;;;;;0.00;0.00;;;10.80;99.90;;;;;;5007214;28;20563;-78
2022/09/27 10:57:27;;;;;;;0.00;0.00;;;11.00;99.90;;;;;;5007724;28;20053;-75
2022/09/27 10:59:59;;;;;;;0.00;0.00;;;11.20;99.90;;;;;;5006832;28;20058;-75
2022/09/27 11:02:32;;;;;;;0.00;0.00;;;11.50;99.90;;;;;;5006694;28;20044;-76
2022/09/27 11:07:35;;;;;;;0.00;0.00;;;12.00;99.90;;;;;;5150881;22;20124;-77
2022/09/27 11:10:02;;;;;;;0.00;0.00;;;12.60;99.90;;;;;;5013775;28;20064;-77
2022/09/27 11:12:30;;;;;;;0.00;0.00;;;12.90;99.90;;;;;;5012200;28;20092;-76
2022/09/27 11:15:13;;;;;;;0.80;0.52;;;13.10;99.90;;;;;;4978203;28;20305;-79
2022/09/27 11:17:45;;;;;;;0.05;0.05;;;12.90;99.90;;;;;;5030029;28;20037;-78
2022/09/27 11:20:15;;;;;;;0.00;0.00;;;11.90;99.90;;;;;;5020189;28;20069;-82
2022/09/27 11:23:11;;;;;;;0.00;0.00;;;11.60;99.90;;;;;;5025125;28;20078;-82
2022/09/27 11:25:49;;;;;;;0.00;0.00;;;11.50;99.90;;;;;;5046420;28;20054;-82
2022/09/27 11:28:56;;;;;;;0.00;0.00;;;11.20;99.90;;;;;;5042739;28;20060;-80
2022/09/27 11:31:30;;;;;;;0.00;0.00;;;10.90;99.90;;;;;;5027078;28;20067;-79
2022/09/27 11:34:14;;;;;;;0.00;0.00;;;10.60;99.90;;;;;;5026157;28;20045;-81
2022/09/27 11:36:51;;;;;;;0.08;0.08;;;10.30;99.90;;;;;;5029172;28;20045;-81
2022/09/27 11:39:35;;;;;;;0.00;0.00;;;10.00;99.90;;;;;;5028872;28;20053;-81
2022/09/27 11:42:13;;;;;;;0.00;0.00;;;9.90;99.90;;;;;;5032316;28;20641;-81
2022/09/27 11:44:57;;;;;;;0.08;0.08;;;9.80;99.90;;;;;;5033792;28;20496;-80
2022/09/27 11:47:53;;;;;;;0.00;0.00;;;9.80;99.90;;;;;;5036779;28;20105;-80
2022/09/27 11:50:37;;;;;;;0.00;0.00;;;9.90;99.90;;;;;;5031201;28;20056;-81
2022/09/27 11:53:39;;;;;;;0.00;0.00;;;10.30;99.90;;;;;;5032352;28;20296;-81
2022/09/27 11:56:22;;;;;;;0.00;0.00;;;11.00;99.90;;;;;;5033947;28;20045;-80
2022/09/27 11:58:54;;;;;;;0.00;0.00;;;11.60;99.90;;;;;;5031043;28;20049;-80
2022/09/27 12:01:32;;;;;;;0.00;0.00;;;12.50;99.90;;;;;;5030710;28;20048;-80
2022/09/27 12:04:00;;;;;;;0.00;0.00;;;12.40;99.90;;;;;;5026227;28;20041;-80
2022/09/27 12:06:35;;;;;;;0.00;0.00;;;12.90;99.90;;;;;;5037206;28;20041;-83
2022/09/27 12:09:09;;;;;;;0.00;0.00;;;13.40;99.90;;;;;;5035064;28;20061;-74
2022/09/27 12:11:58;;;;;;;3.83;0.25;;;13.60;99.90;;;;;;5033937;28;20049;-79
2022/09/27 12:14:35;;;;;;;0.00;0.00;;;13.60;99.90;;;;;;5029433;28;20538;-76
2022/09/27 12:17:05;;;;;;;0.00;0.00;;;13.90;99.90;;;;;;5007130;28;20054;-76
2022/09/27 12:19:38;;;;;;;2.17;0.30;;;13.80;99.90;;;;;;4992579;28;20111;-75
2022/09/27 12:22:10;;;;;;;0.00;0.00;;;13.40;99.90;;;;;;4994920;28;20073;-76
2022/09/27 12:24:37;;;;;;;0.00;0.00;;;13.50;99.90;;;;;;5013371;28;20077;-78
2022/09/27 12:27:13;;;;;;;0.00;0.00;;;13.50;99.90;;;;;;5013230;28;20514;-75
2022/09/27 12:29:42;;;;;;;0.00;0.00;;;13.20;99.90;;;;;;5011748;28;20045;-75
2022/09/27 12:32:21;;;;;;;0.10;0.10;;;12.90;99.90;;;;;;5012165;28;20125;-74
2022/09/27 12:34:59;;;;;;;0.10;0.10;;;12.70;59.50;;;;;;5011508;28;20042;-74
2022/09/27 12:37:36;;;;;;;0.00;0.00;;;12.40;1.00;;;;;;5012728;28;20057;-76
2022/09/27 12:40:35;;;;;;;0.00;0.00;;;12.80;99.90;;;;;;5010510;28;20543;-75
2022/09/27 12:43:19;;;;;;;0.00;0.00;;;11.90;1.00;;;;;;5014116;28;20114;-76
2022/09/27 12:45:57;;;;;;;0.00;0.00;;;11.80;99.90;;;;;;4993086;28;20049;-75
2022/09/27 12:48:44;;;;;;;0.08;0.08;;;11.70;99.90;;;;;;5014352;28;20053;-75
2022/09/27 12:51:17;;;;;;;1.08;0.43;;;11.60;99.90;;;;;;5014183;28;20072;-77
2022/09/27 12:54:11;;;;;;;0.00;0.00;;;11.40;99.90;;;;;;5015087;28;20054;-76
2022/09/27 12:56:46;;;;;;;0.00;0.00;;;11.30;99.90;;;;;;4996194;28;20050;-76
2022/09/27 12:59:46;;;;;;;0.10;0.10;;;11.20;99.90;;;;;;5012653;28;20115;-75
2022/09/27 13:02:32;;;;;;;0.00;0.00;;;11.10;99.90;;;;;;5020397;28;20512;-80
2022/09/27 13:05:18;;;;;;;0.00;0.00;;;11.00;99.90;;;;;;5018452;28;20042;-79
2022/09/27 13:08:14;;;;;;;0.00;0.00;;;10.80;99.90;;;;;;5006442;28;20058;-77
2022/09/27 13:10:46;;;;;;;0.32;0.17;;;10.20;99.90;;;;;;4988713;28;20341;-75
2022/09/27 13:13:15;;;;;;;1.30;0.30;;;9.80;99.90;;;;;;5005846;28;20052;-75
2022/09/27 13:15:43;;;;;;;0.00;0.00;;;9.80;99.90;;;;;;4987561;28;20108;-77
2022/09/27 13:18:29;;;;;;;0.47;0.47;;;10.20;99.90;;;;;;5004329;28;20045;-77
2022/09/27 13:20:55;;;;;;;0.00;0.00;;;11.00;99.90;;;;;;5006989;28;20073;-77
2022/09/27 13:23:41;;;;;;;0.00;0.00;;;12.30;99.90;;;;;;5009567;28;20034;-76
2022/09/27 13:26:08;;;;;;;1.13;0.20;;;12.50;99.90;;;;;;5007883;28;20054;-77
2022/09/27 13:28:58;;;;;;;0.17;0.15;;;13.00;99.90;;;;;;5008437;28;20084;-76
2022/09/27 13:31:56;;;;;;;0.00;0.00;;;13.10;99.90;;;;;;5010822;28;20053;-76
2022/09/27 13:34:46;;;;;;;0.00;0.00;;;12.80;99.90;;;;;;5009600;28;20054;-75